sensor_id;sensor_type;location;lat;lon;timestamp;temperature;humidity
52481;DHT22;38393;52.404;13.532;2023-11-18T00:01:08;5.60;99.90
52481;DHT22;38393;52.404;13.532;2023-11-18T00:03:34;5.60;99.90
52481;DHT22;38393;52.404;13.532;2023-11-18T00:05:59;5.60;99.90
52481;DHT22;38393;52.404;13.532;2023-11-18T00:08:25;5.60;99.90
52481;DHT22;38393;52.404;13.532;2023-11-18T00:10:50;5.70;99.90
52481;DHT22;38393;52.404;13.532;2023-11-18T00:13:16;5.60;99.90
52481;DHT22;38393;52.404;13.532;2023-11-18T00:15:41;5.60;99.90
52481;DHT22;38393;52.404;13.532;2023-11-18T00:18:08;5.70;99.90
52481;DHT22;38393;52.404;13.532;2023-11-18T00:20:33;5.70;99.90
52481;DHT22;38393;52.404;13.532;2023-11-18T00:23:01;5.80;99.90
52481;DHT22;38393;52.404;13.532;2023-11-18T00:25:30;5.60;99.90
52481;DHT22;38393;52.404;13.532;2023-11-18T00:27:55;5.60;99.90
52481;DHT22;38393;52.404;13.532;2023-11-18T00:30:20;5.70;99.90
52481;DHT22;38393;52.404;13.532;2023-11-18T00:32:46;5.70;99.90
52481;DHT22;38393;52.404;13.532;2023-11-18T00:35:11;5.60;99.90
52481;DHT22;38393;52.404;13.532;2023-11-18T00:37:37;5.60;99.90
52481;DHT22;38393;52.404;13.532;2023-11-18T00:40:03;5.70;99.90
52481;DHT22;38393;52.404;13.532;2023-11-18T00:42:28;5.70;99.90
52481;DHT22;38393;52.404;13.532;2023-11-18T00:44:54;5.60;99.90
52481;DHT22;38393;52.404;13.532;2023-11-18T00:47:20;5.60;99.90
52481;DHT22;38393;52.404;13.532;2023-11-18T00:49:48;5.60;99.90
52481;DHT22;38393;52.404;13.532;2023-11-18T00:52:14;5.50;99.90
52481;DHT22;38393;52.404;13.532;2023-11-18T00:54:40;5.60;99.90
52481;DHT22;38393;52.404;13.532;2023-11-18T00:57:06;5.60;99.90
52481;DHT22;38393;52.404;13.532;2023-11-18T00:59:35;5.60;99.90
52481;DHT22;38393;52.404;13.532;2023-11-18T01:02:00;5.60;99.90
52481;DHT22;38393;52.404;13.532;2023-11-18T01:04:28;5.50;99.90
52481;DHT22;38393;52.404;13.532;2023-11-18T01:06:54;5.60;99.90
52481;DHT22;38393;52.404;13.532;2023-11-18T01:09:19;5.60;99.90
52481;DHT22;38393;52.404;13.532;2023-11-18T01:11:45;5.60;99.90
52481;DHT22;38393;52.404;13.532;2023-11-18T01:14:10;5.50;99.90
52481;DHT22;38393;52.404;13.532;2023-11-18T01:16:37;5.50;99.90
52481;DHT22;38393;52.404;13.532;2023-11-18T01:19:03;5.50;99.90
52481;DHT22;38393;52.404;13.532;2023-11-18T01:21:29;5.60;99.90
52481;DHT22;38393;52.404;13.532;2023-11-18T01:23:54;5.50;99.90
52481;DHT22;38393;52.404;13.532;2023-11-18T01:26:20;5.40;99.90
52481;DHT22;38393;52.404;13.532;2023-11-18T01:28:47;5.50;99.90
52481;DHT22;38393;52.404;13.532;2023-11-18T01:31:12;5.60;99.90
52481;DHT22;38393;52.404;13.532;2023-11-18T01:33:39;5.70;99.90
52481;DHT22;38393;52.404;13.532;2023-11-18T01:36:07;5.40;99.90
52481;DHT22;38393;52.404;13.532;2023-11-18T01:38:36;5.50;99.90
52481;DHT22;38393;52.404;13.532;2023-11-18T01:41:03;5.40;99.90
52481;DHT22;38393;52.404;13.532;2023-11-18T01:43:30;5.50;99.90
52481;DHT22;38393;52.404;13.532;2023-11-18T01:46:02;5.60;99.90
52481;DHT22;38393;52.404;13.532;2023-11-18T01:48:28;5.50;99.90
52481;DHT22;38393;52.404;13.532;2023-11-18T01:50:56;5.50;99.90
52481;DHT22;38393;52.404;13.532;2023-11-18T01:53:23;5.60;99.90
52481;DHT22;38393;52.404;13.532;2023-11-18T01:55:49;5.70;99.90
52481;DHT22;38393;52.404;13.532;2023-11-18T01:58:15;5.40;99.90
52481;DHT22;38393;52.404;13.532;2023-11-18T02:00:45;5.50;99.90
52481;DHT22;38393;52.404;13.532;2023-11-18T02:03:14;5.60;99.90
52481;DHT22;38393;52.404;13.532;2023-11-18T02:05:40;5.50;99.90
52481;DHT22;38393;52.404;13.532;2023-11-18T02:08:07;5.50;99.90
52481;DHT22;38393;52.404;13.532;2023-11-18T02:10:34;5.50;99.90
52481;DHT22;38393;52.404;13.532;2023-11-18T02:13:12;5.50;99.90
52481;DHT22;38393;52.404;13.532;2023-11-18T02:15:38;5.50;99.90
52481;DHT22;38393;52.404;13.532;2023-11-18T02:18:06;5.40;99.90
52481;DHT22;38393;52.404;13.532;2023-11-18T02:20:36;5.50;99.90
52481;DHT22;38393;52.404;13.532;2023-11-18T02:23:02;5.60;99.90
52481;DHT22;38393;52.404;13.532;2023-11-18T02:25:28;5.60;99.90
52481;DHT22;38393;52.404;13.532;2023-11-18T02:27:55;5.60;99.90
52481;DHT22;38393;52.404;13.532;2023-11-18T02:30:20;5.50;99.90
52481;DHT22;38393;52.404;13.532;2023-11-18T02:32:58;5.50;99.90
52481;DHT22;38393;52.404;13.532;2023-11-18T02:35:29;5.50;99.90
52481;DHT22;38393;52.404;13.532;2023-11-18T02:37:57;5.50;99.90
52481;DHT22;38393;52.404;13.532;2023-11-18T02:40:32;5.50;99.90
52481;DHT22;38393;52.404;13.532;2023-11-18T02:42:59;5.60;99.90
52481;DHT22;38393;52.404;13.532;2023-11-18T02:45:26;5.50;99.90
52481;DHT22;38393;52.404;13.532;2023-11-18T02:47:52;5.60;99.90
52481;DHT22;38393;52.404;13.532;2023-11-18T02:50:25;5.70;99.90
52481;DHT22;38393;52.404;13.532;2023-11-18T02:52:53;5.60;99.90
52481;DHT22;38393;52.404;13.532;2023-11-18T02:55:19;5.60;99.90
52481;DHT22;38393;52.404;13.532;2023-11-18T02:57:46;5.60;99.90
52481;DHT22;38393;52.404;13.532;2023-11-18T03:00:12;5.50;99.90
52481;DHT22;38393;52.404;13.532;2023-11-18T03:02:44;5.60;99.90
52481;DHT22;38393;52.404;13.532;2023-11-18T03:05:09;5.50;99.90
52481;DHT22;38393;52.404;13.532;2023-11-18T03:07:37;5.50;99.90
52481;DHT22;38393;52.404;13.532;2023-11-18T03:10:03;5.60;99.90
52481;DHT22;38393;52.404;13.532;2023-11-18T03:12:35;5.60;99.90
52481;DHT22;38393;52.404;13.532;2023-11-18T03:15:00;5.60;99.90
52481;DHT22;38393;52.404;13.532;2023-11-18T03:17:26;5.50;99.90
52481;DHT22;38393;52.404;13.532;2023-11-18T03:19:51;5.50;99.90
52481;DHT22;38393;52.404;13.532;2023-11-18T03:22:17;5.60;99.90
52481;DHT22;38393;52.404;13.532;2023-11-18T03:24:42;5.60;99.90
52481;DHT22;38393;52.404;13.532;2023-11-18T03:27:08;5.60;99.90
52481;DHT22;38393;52.404;13.532;2023-11-18T03:29:34;5.70;99.90
52481;DHT22;38393;52.404;13.532;2023-11-18T03:31:59;5.60;99.90
52481;DHT22;38393;52.404;13.532;2023-11-18T03:34:25;5.60;99.90
52481;DHT22;38393;52.404;13.532;2023-11-18T03:36:50;5.80;99.90
52481;DHT22;38393;52.404;13.532;2023-11-18T03:39:17;5.60;99.90
52481;DHT22;38393;52.404;13.532;2023-11-18T03:41:43;5.70;99.90
52481;DHT22;38393;52.404;13.532;2023-11-18T03:44:11;5.60;99.90
52481;DHT22;38393;52.404;13.532;2023-11-18T03:46:37;5.60;99.90
52481;DHT22;38393;52.404;13.532;2023-11-18T03:49:02;5.70;99.90
52481;DHT22;38393;52.404;13.532;2023-11-18T03:51:28;5.60;99.90
52481;DHT22;38393;52.404;13.532;2023-11-18T03:53:54;5.40;99.90
52481;DHT22;38393;52.404;13.532;2023-11-18T03:56:20;5.50;99.90
52481;DHT22;38393;52.404;13.532;2023-11-18T03:58:45;5.50;99.90
52481;DHT22;38393;52.404;13.532;2023-11-18T04:01:20;5.60;99.90
52481;DHT22;38393;52.404;13.532;2023-11-18T04:03:46;5.70;99.90
52481;DHT22;38393;52.404;13.532;2023-11-18T04:06:11;5.60;99.90
52481;DHT22;38393;52.404;13.532;2023-11-18T04:08:36;5.70;99.90
52481;DHT22;38393;52.404;13.532;2023-11-18T04:11:03;5.70;99.90
52481;DHT22;38393;52.404;13.532;2023-11-18T04:13:29;5.60;99.90
52481;DHT22;38393;52.404;13.532;2023-11-18T04:15:55;5.60;99.90
52481;DHT22;38393;52.404;13.532;2023-11-18T04:18:20;5.60;99.90
52481;DHT22;38393;52.404;13.532;2023-11-18T04:20:46;5.60;99.90
52481;DHT22;38393;52.404;13.532;2023-11-18T04:23:12;5.60;99.90
52481;DHT22;38393;52.404;13.532;2023-11-18T04:25:38;5.60;99.90
52481;DHT22;38393;52.404;13.532;2023-11-18T04:28:03;5.60;99.90
52481;DHT22;38393;52.404;13.532;2023-11-18T04:30:29;5.60;99.90
52481;DHT22;38393;52.404;13.532;2023-11-18T04:32:55;5.50;99.90
52481;DHT22;38393;52.404;13.532;2023-11-18T04:35:20;5.50;99.90
52481;DHT22;38393;52.404;13.532;2023-11-18T04:37:47;5.50;99.90
52481;DHT22;38393;52.404;13.532;2023-11-18T04:40:13;5.60;99.90
52481;DHT22;38393;52.404;13.532;2023-11-18T04:42:39;5.60;99.90
52481;DHT22;38393;52.404;13.532;2023-11-18T04:45:05;5.60;99.90
52481;DHT22;38393;52.404;13.532;2023-11-18T04:47:31;5.60;99.90
52481;DHT22;38393;52.404;13.532;2023-11-18T04:49:56;5.50;99.90
52481;DHT22;38393;52.404;13.532;2023-11-18T04:52:22;5.60;99.90
52481;DHT22;38393;52.404;13.532;2023-11-18T04:54:47;5.50;99.90
52481;DHT22;38393;52.404;13.532;2023-11-18T04:57:13;5.50;99.90
52481;DHT22;38393;52.404;13.532;2023-11-18T04:59:39;5.50;99.90
52481;DHT22;38393;52.404;13.532;2023-11-18T05:02:04;5.70;99.90
52481;DHT22;38393;52.404;13.532;2023-11-18T05:04:30;5.60;99.90
52481;DHT22;38393;52.404;13.532;2023-11-18T05:06:55;5.60;99.90
52481;DHT22;38393;52.404;13.532;2023-11-18T05:09:21;5.50;99.90
52481;DHT22;38393;52.404;13.532;2023-11-18T05:11:46;5.50;99.90
52481;DHT22;38393;52.404;13.532;2023-11-18T05:14:12;5.40;99.90
52481;DHT22;38393;52.404;13.532;2023-11-18T05:16:37;5.50;99.90
52481;DHT22;38393;52.404;13.532;2023-11-18T05:19:04;5.50;99.90
52481;DHT22;38393;52.404;13.532;2023-11-18T05:21:29;5.50;99.90
52481;DHT22;38393;52.404;13.532;2023-11-18T05:23:55;5.50;99.90
52481;DHT22;38393;52.404;13.532;2023-11-18T05:26:20;5.50;99.90
52481;DHT22;38393;52.404;13.532;2023-11-18T05:28:46;5.50;99.90
52481;DHT22;38393;52.404;13.532;2023-11-18T05:31:11;5.50;99.90
52481;DHT22;38393;52.404;13.532;2023-11-18T05:33:37;5.40;99.90
52481;DHT22;38393;52.404;13.532;2023-11-18T05:36:03;5.40;99.90
52481;DHT22;38393;52.404;13.532;2023-11-18T05:38:30;5.50;99.90
52481;DHT22;38393;52.404;13.532;2023-11-18T05:41:00;5.40;99.90
52481;DHT22;38393;52.404;13.532;2023-11-18T05:43:32;5.40;99.90
52481;DHT22;38393;52.404;13.532;2023-11-18T05:46:16;5.40;99.90
52481;DHT22;38393;52.404;13.532;2023-11-18T05:48:48;5.30;99.90
52481;DHT22;38393;52.404;13.532;2023-11-18T05:51:22;5.40;99.90
52481;DHT22;38393;52.404;13.532;2023-11-18T05:53:48;5.40;99.90
52481;DHT22;38393;52.404;13.532;2023-11-18T05:56:14;5.50;99.90
52481;DHT22;38393;52.404;13.532;2023-11-18T05:58:40;5.40;99.90
52481;DHT22;38393;52.404;13.532;2023-11-18T06:01:06;5.30;99.90
52481;DHT22;38393;52.404;13.532;2023-11-18T06:03:36;5.40;99.90
52481;DHT22;38393;52.404;13.532;2023-11-18T06:06:07;5.20;99.90
52481;DHT22;38393;52.404;13.532;2023-11-18T06:08:34;5.20;99.90
52481;DHT22;38393;52.404;13.532;2023-11-18T06:10:59;5.40;99.90
52481;DHT22;38393;52.404;13.532;2023-11-18T06:13:25;5.20;99.90
52481;DHT22;38393;52.404;13.532;2023-11-18T06:15:52;5.20;99.90
52481;DHT22;38393;52.404;13.532;2023-11-18T06:18:18;5.30;99.90
52481;DHT22;38393;52.404;13.532;2023-11-18T06:20:44;5.20;99.90
52481;DHT22;38393;52.404;13.532;2023-11-18T06:23:09;5.20;99.90
52481;DHT22;38393;52.404;13.532;2023-11-18T06:25:35;5.20;99.90
52481;DHT22;38393;52.404;13.532;2023-11-18T06:28:01;5.10;99.90
52481;DHT22;38393;52.404;13.532;2023-11-18T06:30:27;5.10;99.90
52481;DHT22;38393;52.404;13.532;2023-11-18T06:32:53;5.10;99.90
52481;DHT22;38393;52.404;13.532;2023-11-18T06:35:18;5.00;99.90
52481;DHT22;38393;52.404;13.532;2023-11-18T06:37:46;4.80;99.90
52481;DHT22;38393;52.404;13.532;2023-11-18T06:40:13;4.70;99.90
52481;DHT22;38393;52.404;13.532;2023-11-18T06:42:42;4.70;99.90
52481;DHT22;38393;52.404;13.532;2023-11-18T06:45:08;4.70;99.90
52481;DHT22;38393;52.404;13.532;2023-11-18T06:47:35;4.70;99.90
52481;DHT22;38393;52.404;13.532;2023-11-18T06:50:02;4.70;99.90
52481;DHT22;38393;52.404;13.532;2023-11-18T06:52:27;4.60;99.90
52481;DHT22;38393;52.404;13.532;2023-11-18T06:54:53;4.50;99.90
52481;DHT22;38393;52.404;13.532;2023-11-18T06:57:20;4.50;99.90
52481;DHT22;38393;52.404;13.532;2023-11-18T06:59:47;4.50;99.90
52481;DHT22;38393;52.404;13.532;2023-11-18T07:02:12;4.50;99.90
52481;DHT22;38393;52.404;13.532;2023-11-18T07:04:38;4.50;99.90
52481;DHT22;38393;52.404;13.532;2023-11-18T07:07:04;4.70;99.90
52481;DHT22;38393;52.404;13.532;2023-11-18T07:09:29;4.70;99.90
52481;DHT22;38393;52.404;13.532;2023-11-18T07:12:01;4.90;99.90
52481;DHT22;38393;52.404;13.532;2023-11-18T07:14:28;4.80;99.90
52481;DHT22;38393;52.404;13.532;2023-11-18T07:16:54;4.90;99.90
52481;DHT22;38393;52.404;13.532;2023-11-18T07:19:20;4.90;99.90
52481;DHT22;38393;52.404;13.532;2023-11-18T07:21:46;4.90;99.90
52481;DHT22;38393;52.404;13.532;2023-11-18T07:24:12;4.80;99.90
52481;DHT22;38393;52.404;13.532;2023-11-18T07:26:37;4.70;99.90
52481;DHT22;38393;52.404;13.532;2023-11-18T07:29:03;4.80;99.90
52481;DHT22;38393;52.404;13.532;2023-11-18T07:31:29;4.90;99.90
52481;DHT22;38393;52.404;13.532;2023-11-18T07:33:54;4.90;99.90
52481;DHT22;38393;52.404;13.532;2023-11-18T07:36:21;5.00;99.90
52481;DHT22;38393;52.404;13.532;2023-11-18T07:38:47;5.20;99.90
52481;DHT22;38393;52.404;13.532;2023-11-18T07:41:13;5.20;99.90
52481;DHT22;38393;52.404;13.532;2023-11-18T07:43:50;5.40;99.90
52481;DHT22;38393;52.404;13.532;2023-11-18T07:46:16;5.30;99.90
52481;DHT22;38393;52.404;13.532;2023-11-18T07:48:41;5.30;99.90
52481;DHT22;38393;52.404;13.532;2023-11-18T07:51:07;5.50;99.90
52481;DHT22;38393;52.404;13.532;2023-11-18T07:53:33;5.40;99.90
52481;DHT22;38393;52.404;13.532;2023-11-18T07:55:59;5.50;99.90
52481;DHT22;38393;52.404;13.532;2023-11-18T07:58:27;5.60;99.90
52481;DHT22;38393;52.404;13.532;2023-11-18T08:00:53;5.60;99.90
52481;DHT22;38393;52.404;13.532;2023-11-18T08:03:20;5.60;99.90
52481;DHT22;38393;52.404;13.532;2023-11-18T08:05:46;5.60;99.90
52481;DHT22;38393;52.404;13.532;2023-11-18T08:08:14;5.70;99.90
52481;DHT22;38393;52.404;13.532;2023-11-18T08:10:43;5.60;99.90
52481;DHT22;38393;52.404;13.532;2023-11-18T08:13:10;5.70;99.90
52481;DHT22;38393;52.404;13.532;2023-11-18T08:15:41;5.70;99.90
52481;DHT22;38393;52.404;13.532;2023-11-18T08:18:07;5.90;99.90
52481;DHT22;38393;52.404;13.532;2023-11-18T08:20:33;5.90;99.90
52481;DHT22;38393;52.404;13.532;2023-11-18T08:22:58;5.90;99.90
52481;DHT22;38393;52.404;13.532;2023-11-18T08:25:24;6.10;99.90
52481;DHT22;38393;52.404;13.532;2023-11-18T08:27:51;6.20;99.90
52481;DHT22;38393;52.404;13.532;2023-11-18T08:30:16;6.00;99.90
52481;DHT22;38393;52.404;13.532;2023-11-18T08:32:44;6.10;99.90
52481;DHT22;38393;52.404;13.532;2023-11-18T08:35:10;5.90;99.90
52481;DHT22;38393;52.404;13.532;2023-11-18T08:37:38;6.00;99.90
52481;DHT22;38393;52.404;13.532;2023-11-18T08:40:05;5.90;99.90
52481;DHT22;38393;52.404;13.532;2023-11-18T08:42:51;6.00;99.90
52481;DHT22;38393;52.404;13.532;2023-11-18T08:45:20;6.10;99.90
52481;DHT22;38393;52.404;13.532;2023-11-18T08:47:47;6.00;99.90
52481;DHT22;38393;52.404;13.532;2023-11-18T08:50:14;5.90;99.90
52481;DHT22;38393;52.404;13.532;2023-11-18T08:52:39;6.00;99.90
52481;DHT22;38393;52.404;13.532;2023-11-18T08:55:10;6.10;99.90
52481;DHT22;38393;52.404;13.532;2023-11-18T08:57:46;6.10;99.90
52481;DHT22;38393;52.404;13.532;2023-11-18T09:00:38;6.00;99.90
52481;DHT22;38393;52.404;13.532;2023-11-18T09:03:08;6.00;99.90
52481;DHT22;38393;52.404;13.532;2023-11-18T09:05:33;6.10;99.90
52481;DHT22;38393;52.404;13.532;2023-11-18T09:08:01;6.20;99.90
52481;DHT22;38393;52.404;13.532;2023-11-18T09:10:28;6.20;99.90
52481;DHT22;38393;52.404;13.532;2023-11-18T09:12:55;6.00;99.90
52481;DHT22;38393;52.404;13.532;2023-11-18T09:15:20;6.20;99.90
52481;DHT22;38393;52.404;13.532;2023-11-18T09:17:49;6.10;99.90
52481;DHT22;38393;52.404;13.532;2023-11-18T09:20:15;6.20;99.90
52481;DHT22;38393;52.404;13.532;2023-11-18T09:22:46;6.10;99.90
52481;DHT22;38393;52.404;13.532;2023-11-18T09:25:11;6.00;99.90
52481;DHT22;38393;52.404;13.532;2023-11-18T09:27:37;6.00;99.90
52481;DHT22;38393;52.404;13.532;2023-11-18T09:30:05;6.00;99.90
52481;DHT22;38393;52.404;13.532;2023-11-18T09:32:41;6.10;99.90
52481;DHT22;38393;52.404;13.532;2023-11-18T09:35:08;6.20;99.90
52481;DHT22;38393;52.404;13.532;2023-11-18T09:37:35;6.30;99.90
52481;DHT22;38393;52.404;13.532;2023-11-18T09:40:02;6.20;99.90
52481;DHT22;38393;52.404;13.532;2023-11-18T09:42:37;6.40;99.90
52481;DHT22;38393;52.404;13.532;2023-11-18T09:45:04;6.50;99.90
52481;DHT22;38393;52.404;13.532;2023-11-18T09:47:36;6.30;99.90
52481;DHT22;38393;52.404;13.532;2023-11-18T09:50:08;6.40;99.90
52481;DHT22;38393;52.404;13.532;2023-11-18T09:52:42;6.40;99.90
52481;DHT22;38393;52.404;13.532;2023-11-18T09:55:26;6.40;99.90
52481;DHT22;38393;52.404;13.532;2023-11-18T09:57:55;6.40;99.90
52481;DHT22;38393;52.404;13.532;2023-11-18T10:00:26;6.30;99.90
52481;DHT22;38393;52.404;13.532;2023-11-18T10:02:58;6.30;99.90
52481;DHT22;38393;52.404;13.532;2023-11-18T10:05:26;6.50;99.90
52481;DHT22;38393;52.404;13.532;2023-11-18T10:07:52;6.60;99.90
52481;DHT22;38393;52.404;13.532;2023-11-18T10:10:19;6.50;99.90
52481;DHT22;38393;52.404;13.532;2023-11-18T10:12:50;6.60;99.90
52481;DHT22;38393;52.404;13.532;2023-11-18T10:15:21;6.50;99.90
52481;DHT22;38393;52.404;13.532;2023-11-18T10:17:49;6.60;99.90
52481;DHT22;38393;52.404;13.532;2023-11-18T10:20:43;6.70;99.90
52481;DHT22;38393;52.404;13.532;2023-11-18T10:23:14;6.60;99.90
52481;DHT22;38393;52.404;13.532;2023-11-18T10:25:47;6.40;99.90
52481;DHT22;38393;52.404;13.532;2023-11-18T10:28:26;6.30;99.90
52481;DHT22;38393;52.404;13.532;2023-11-18T10:30:57;6.60;99.90
52481;DHT22;38393;52.404;13.532;2023-11-18T10:33:27;6.50;99.90
52481;DHT22;38393;52.404;13.532;2023-11-18T10:35:59;6.50;99.90
52481;DHT22;38393;52.404;13.532;2023-11-18T10:38:29;6.70;99.90
52481;DHT22;38393;52.404;13.532;2023-11-18T10:40:57;6.60;99.90
52481;DHT22;38393;52.404;13.532;2023-11-18T10:43:23;6.60;99.90
52481;DHT22;38393;52.404;13.532;2023-11-18T10:48:44;6.50;99.90
52481;DHT22;38393;52.404;13.532;2023-11-18T10:51:16;6.50;99.90
52481;DHT22;38393;52.404;13.532;2023-11-18T10:53:43;6.40;99.90
52481;DHT22;38393;52.404;13.532;2023-11-18T10:56:22;6.40;99.90
52481;DHT22;38393;52.404;13.532;2023-11-18T10:58:56;6.40;99.90
52481;DHT22;38393;52.404;13.532;2023-11-18T11:01:32;6.30;99.90
52481;DHT22;38393;52.404;13.532;2023-11-18T11:03:58;6.30;99.90
52481;DHT22;38393;52.404;13.532;2023-11-18T11:06:24;6.20;99.90
52481;DHT22;38393;52.404;13.532;2023-11-18T11:08:54;6.30;99.90
52481;DHT22;38393;52.404;13.532;2023-11-18T11:11:20;6.30;99.90
52481;DHT22;38393;52.404;13.532;2023-11-18T11:13:56;6.30;99.90
52481;DHT22;38393;52.404;13.532;2023-11-18T11:16:25;6.10;99.90
52481;DHT22;38393;52.404;13.532;2023-11-18T11:18:55;6.30;99.90
52481;DHT22;38393;52.404;13.532;2023-11-18T11:21:26;6.20;99.90
52481;DHT22;38393;52.404;13.532;2023-11-18T11:23:57;6.20;99.90
52481;DHT22;38393;52.404;13.532;2023-11-18T11:29:36;6.30;99.90
52481;DHT22;38393;52.404;13.532;2023-11-18T11:32:23;6.20;99.90
52481;DHT22;38393;52.404;13.532;2023-11-18T11:34:55;6.20;99.90
52481;DHT22;38393;52.404;13.532;2023-11-18T11:37:31;6.20;99.90
52481;DHT22;38393;52.404;13.532;2023-11-18T11:40:00;6.20;99.90
52481;DHT22;38393;52.404;13.532;2023-11-18T11:42:29;6.10;99.90
52481;DHT22;38393;52.404;13.532;2023-11-18T11:44:56;6.10;99.90
52481;DHT22;38393;52.404;13.532;2023-11-18T11:47:24;6.20;99.90
52481;DHT22;38393;52.404;13.532;2023-11-18T11:50:10;6.30;99.90
52481;DHT22;38393;52.404;13.532;2023-11-18T11:52:43;6.40;99.90
52481;DHT22;38393;52.404;13.532;2023-11-18T11:55:19;6.30;99.90
52481;DHT22;38393;52.404;13.532;2023-11-18T11:57:52;6.30;99.90
52481;DHT22;38393;52.404;13.532;2023-11-18T12:00:23;6.50;99.90
52481;DHT22;38393;52.404;13.532;2023-11-18T12:02:52;6.80;99.90
52481;DHT22;38393;52.404;13.532;2023-11-18T12:05:24;6.60;99.90
52481;DHT22;38393;52.404;13.532;2023-11-18T12:07:52;6.60;99.90
52481;DHT22;38393;52.404;13.532;2023-11-18T12:10:20;6.70;99.90
52481;DHT22;38393;52.404;13.532;2023-11-18T12:12:47;6.90;99.90
52481;DHT22;38393;52.404;13.532;2023-11-18T12:15:13;6.90;99.90
52481;DHT22;38393;52.404;13.532;2023-11-18T12:20:46;6.90;99.90
52481;DHT22;38393;52.404;13.532;2023-11-18T12:23:19;7.00;99.90
52481;DHT22;38393;52.404;13.532;2023-11-18T12:25:49;7.20;99.90
52481;DHT22;38393;52.404;13.532;2023-11-18T12:28:20;6.90;99.90
52481;DHT22;38393;52.404;13.532;2023-11-18T12:30:52;6.80;99.90
52481;DHT22;38393;52.404;13.532;2023-11-18T12:33:21;7.00;99.90
52481;DHT22;38393;52.404;13.532;2023-11-18T12:41:37;6.70;99.90
52481;DHT22;38393;52.404;13.532;2023-11-18T12:44:16;6.50;99.90
52481;DHT22;38393;52.404;13.532;2023-11-18T12:47:03;6.40;99.90
52481;DHT22;38393;52.404;13.532;2023-11-18T12:49:43;6.30;99.90
52481;DHT22;38393;52.404;13.532;2023-11-18T12:52:10;6.20;99.90
52481;DHT22;38393;52.404;13.532;2023-11-18T12:54:36;6.20;99.90
52481;DHT22;38393;52.404;13.532;2023-11-18T12:57:12;6.30;99.90
52481;DHT22;38393;52.404;13.532;2023-11-18T12:59:41;6.40;99.90
52481;DHT22;38393;52.404;13.532;2023-11-18T13:02:10;6.40;99.90
52481;DHT22;38393;52.404;13.532;2023-11-18T13:04:47;6.40;99.90
52481;DHT22;38393;52.404;13.532;2023-11-18T13:07:17;6.30;99.90
52481;DHT22;38393;52.404;13.532;2023-11-18T13:09:44;6.30;99.90
52481;DHT22;38393;52.404;13.532;2023-11-18T13:12:11;6.40;99.90
52481;DHT22;38393;52.404;13.532;2023-11-18T13:14:40;6.60;99.90
52481;DHT22;38393;52.404;13.532;2023-11-18T13:17:14;6.40;99.90
52481;DHT22;38393;52.404;13.532;2023-11-18T13:19:41;6.40;99.90
52481;DHT22;38393;52.404;13.532;2023-11-18T13:22:09;6.40;99.90
52481;DHT22;38393;52.404;13.532;2023-11-18T13:24:35;6.60;99.90
52481;DHT22;38393;52.404;13.532;2023-11-18T13:27:02;6.60;99.90
52481;DHT22;38393;52.404;13.532;2023-11-18T13:29:32;6.90;99.90
52481;DHT22;38393;52.404;13.532;2023-11-18T13:32:00;6.70;99.90
52481;DHT22;38393;52.404;13.532;2023-11-18T13:34:35;6.60;99.90
52481;DHT22;38393;52.404;13.532;2023-11-18T13:37:04;6.90;99.90
52481;DHT22;38393;52.404;13.532;2023-11-18T13:39:31;7.10;99.90
52481;DHT22;38393;52.404;13.532;2023-11-18T13:41:57;7.10;99.90
52481;DHT22;38393;52.404;13.532;2023-11-18T13:44:36;6.80;99.90
52481;DHT22;38393;52.404;13.532;2023-11-18T13:47:04;6.90;99.90
52481;DHT22;38393;52.404;13.532;2023-11-18T13:49:37;6.90;99.90
52481;DHT22;38393;52.404;13.532;2023-11-18T13:52:05;6.80;99.90
52481;DHT22;38393;52.404;13.532;2023-11-18T13:54:35;6.70;99.90
52481;DHT22;38393;52.404;13.532;2023-11-18T13:57:01;6.50;99.90
52481;DHT22;38393;52.404;13.532;2023-11-18T13:59:28;6.40;99.90
52481;DHT22;38393;52.404;13.532;2023-11-18T14:01:54;6.30;99.90
52481;DHT22;38393;52.404;13.532;2023-11-18T14:04:39;6.20;99.90
52481;DHT22;38393;52.404;13.532;2023-11-18T14:07:05;6.00;99.90
52481;DHT22;38393;52.404;13.532;2023-11-18T14:09:34;5.80;99.90
52481;DHT22;38393;52.404;13.532;2023-11-18T14:12:06;5.60;99.90
52481;DHT22;38393;52.404;13.532;2023-11-18T14:14:32;5.60;99.90
52481;DHT22;38393;52.404;13.532;2023-11-18T14:16:57;5.50;99.90
52481;DHT22;38393;52.404;13.532;2023-11-18T14:19:24;5.50;99.90
52481;DHT22;38393;52.404;13.532;2023-11-18T14:21:51;5.50;99.90
52481;DHT22;38393;52.404;13.532;2023-11-18T14:24:16;5.40;99.90
52481;DHT22;38393;52.404;13.532;2023-11-18T14:26:45;5.30;99.90
52481;DHT22;38393;52.404;13.532;2023-11-18T14:29:11;5.20;99.90
52481;DHT22;38393;52.404;13.532;2023-11-18T14:31:37;5.30;99.90
52481;DHT22;38393;52.404;13.532;2023-11-18T14:34:03;4.90;99.90
52481;DHT22;38393;52.404;13.532;2023-11-18T14:36:29;4.80;99.90
52481;DHT22;38393;52.404;13.532;2023-11-18T14:38:55;4.70;99.90
52481;DHT22;38393;52.404;13.532;2023-11-18T14:41:21;4.60;99.90
52481;DHT22;38393;52.404;13.532;2023-11-18T14:43:52;4.60;99.90
52481;DHT22;38393;52.404;13.532;2023-11-18T14:46:18;4.50;99.90
52481;DHT22;38393;52.404;13.532;2023-11-18T14:48:44;4.30;99.90
52481;DHT22;38393;52.404;13.532;2023-11-18T14:51:09;4.30;99.90
52481;DHT22;38393;52.404;13.532;2023-11-18T14:53:36;4.30;99.90
52481;DHT22;38393;52.404;13.532;2023-11-18T14:56:01;4.30;99.90
52481;DHT22;38393;52.404;13.532;2023-11-18T14:58:29;4.20;99.90
52481;DHT22;38393;52.404;13.532;2023-11-18T15:00:55;4.30;99.90
52481;DHT22;38393;52.404;13.532;2023-11-18T15:03:22;4.30;99.90
52481;DHT22;38393;52.404;13.532;2023-11-18T15:05:48;4.40;99.90
52481;DHT22;38393;52.404;13.532;2023-11-18T15:08:13;4.60;99.90
52481;DHT22;38393;52.404;13.532;2023-11-18T15:10:41;4.60;99.90
52481;DHT22;38393;52.404;13.532;2023-11-18T15:13:10;4.80;99.90
52481;DHT22;38393;52.404;13.532;2023-11-18T15:15:43;4.60;99.90
52481;DHT22;38393;52.404;13.532;2023-11-18T15:18:10;4.70;99.90
52481;DHT22;38393;52.404;13.532;2023-11-18T15:20:40;4.70;99.90
52481;DHT22;38393;52.404;13.532;2023-11-18T15:23:11;4.90;99.90
52481;DHT22;38393;52.404;13.532;2023-11-18T15:25:38;4.90;99.90
52481;DHT22;38393;52.404;13.532;2023-11-18T15:28:04;5.00;99.90
52481;DHT22;38393;52.404;13.532;2023-11-18T15:30:35;5.00;99.90
52481;DHT22;38393;52.404;13.532;2023-11-18T15:33:01;5.00;99.90
52481;DHT22;38393;52.404;13.532;2023-11-18T15:35:26;5.00;99.90
52481;DHT22;38393;52.404;13.532;2023-11-18T15:37:52;5.10;99.90
52481;DHT22;38393;52.404;13.532;2023-11-18T15:40:18;5.10;99.90
52481;DHT22;38393;52.404;13.532;2023-11-18T15:42:50;5.10;99.90
52481;DHT22;38393;52.404;13.532;2023-11-18T15:45:20;5.10;99.90
52481;DHT22;38393;52.404;13.532;2023-11-18T15:47:45;5.10;99.90
52481;DHT22;38393;52.404;13.532;2023-11-18T15:50:14;5.00;99.90